createdAt,value
2019-01-04T00:03:28.201Z,95.49
2019-01-04T00:07:35.059Z,95.49
2019-01-04T00:17:23.389Z,95.74
2019-01-04T00:21:30.586Z,96.11
2019-01-04T00:25:38.518Z,96.12
2019-01-04T00:29:45.382Z,96.13
2019-01-04T00:33:52.295Z,96.02
2019-01-04T00:37:59.377Z,96.14
2019-01-04T00:42:06.233Z,96.23
2019-01-04T00:46:15.174Z,96.07
2019-01-04T00:50:22.091Z,95.96
2019-01-04T00:54:29.086Z,95.88
2019-01-04T00:59:38.032Z,95.78
2019-01-04T01:04:45.533Z,95.64
2019-01-04T01:09:38.211Z,95.54
2019-01-04T01:14:43.247Z,95.34
2019-01-04T01:19:46.042Z,95.60
2019-01-04T01:25:26.771Z,95.84
2019-01-04T01:30:26.422Z,96.07
2019-01-04T01:35:27.716Z,96.10
2019-01-04T01:40:29.697Z,95.84
2019-01-04T01:46:12.840Z,95.65
2019-01-04T01:51:21.475Z,95.63
2019-01-04T01:55:28.407Z,95.76
2019-01-04T01:59:35.696Z,95.67
2019-01-04T02:03:42.573Z,95.75
2019-01-04T02:07:49.615Z,95.33
2019-01-04T02:11:57.095Z,95.24
2019-01-04T02:16:04.404Z,95.13
2019-01-04T02:20:11.509Z,95.00
2019-01-04T02:24:18.392Z,95.10
2019-01-04T02:28:25.432Z,95.11
2019-01-04T02:32:32.440Z,94.91
2019-01-04T02:36:39.645Z,94.64
2019-01-04T02:40:46.924Z,94.66
2019-01-04T02:44:53.756Z,94.80
2019-01-04T02:49:00.633Z,94.78
2019-01-04T02:53:10.351Z,94.83
2019-01-04T02:57:17.238Z,94.52
2019-01-04T03:01:26.224Z,94.53
2019-01-04T03:05:33.280Z,94.32
2019-01-04T03:09:40.287Z,93.68
2019-01-04T03:13:47.148Z,93.24
2019-01-04T03:17:54.083Z,92.91
2019-01-04T03:22:02.077Z,92.95
2019-01-04T03:26:09.086Z,92.95
2019-01-04T03:30:16.531Z,93.13
2019-01-04T03:34:23.420Z,93.54
2019-01-04T03:38:30.361Z,93.69
2019-01-04T03:42:39.823Z,93.96
2019-01-04T03:46:46.885Z,94.15
2019-01-04T03:50:53.874Z,94.35
2019-01-04T03:55:01.155Z,94.17
2019-01-04T03:59:08.183Z,94.26
2019-01-04T04:03:17.684Z,94.45
2019-01-04T04:07:24.618Z,94.20
2019-01-04T04:11:31.496Z,94.14
2019-01-04T04:15:38.501Z,94.40
2019-01-04T04:19:48.317Z,94.52
2019-01-04T04:23:55.197Z,94.57
2019-01-04T04:28:02.089Z,94.67
2019-01-04T04:32:09.311Z,94.69
2019-01-04T04:36:17.204Z,94.75
2019-01-04T04:40:24.209Z,94.75
2019-01-04T04:44:31.251Z,94.75
2019-01-04T04:48:40.020Z,94.63
2019-01-04T04:52:47.119Z,94.57
2019-01-04T04:56:54.566Z,94.54
2019-01-04T05:01:01.455Z,94.46
2019-01-04T05:05:08.478Z,94.53
2019-01-04T05:09:15.396Z,94.51
2019-01-04T05:13:22.285Z,94.44
2019-01-04T05:17:30.269Z,94.39
2019-01-04T05:21:37.545Z,94.37
2019-01-04T05:25:44.477Z,94.43
2019-01-04T05:29:51.336Z,94.56
2019-01-04T05:33:58.162Z,94.79
2019-01-04T05:38:05.200Z,95.11
2019-01-04T05:42:12.251Z,95.18
2019-01-04T05:46:19.133Z,95.37
2019-01-04T05:50:26.201Z,95.54
2019-01-04T05:54:33.283Z,95.57
2019-01-04T05:58:40.277Z,95.51
2019-01-04T06:02:47.276Z,95.52
2019-01-04T06:06:54.261Z,95.40
2019-01-04T06:11:01.247Z,95.75
2019-01-04T06:15:08.264Z,95.84
2019-01-04T06:19:15.136Z,95.88
2019-01-04T06:23:24.734Z,96.26
2019-01-04T06:27:31.797Z,96.56
2019-01-04T06:31:39.387Z,96.98
2019-01-04T06:35:46.365Z,97.21
2019-01-04T06:39:53.404Z,97.40
2019-01-04T06:44:00.496Z,97.46
2019-01-04T06:48:07.590Z,97.51
2019-01-04T06:52:14.639Z,97.53
2019-01-04T06:56:21.566Z,97.60
2019-01-04T07:00:28.649Z,97.75
2019-01-04T07:04:36.394Z,97.99
2019-01-04T07:08:43.416Z,98.09
2019-01-04T07:12:50.419Z,98.18
2019-01-04T07:17:00.362Z,98.34
2019-01-04T07:21:07.563Z,98.52
2019-01-04T07:25:14.591Z,98.67
2019-01-04T07:29:21.471Z,98.60
2019-01-04T07:33:28.497Z,98.59
2019-01-04T07:37:35.353Z,98.64
2019-01-04T07:41:43.306Z,98.61
2019-01-04T07:45:50.398Z,98.50
2019-01-04T07:49:57.403Z,98.44
2019-01-04T07:54:07.343Z,99.05
2019-01-04T07:58:14.406Z,99.02
2019-01-04T08:02:41.432Z,99.06
2019-01-04T08:06:48.353Z,98.45
2019-01-04T08:10:55.355Z,98.03
2019-01-04T08:15:03.573Z,97.73
2019-01-04T08:19:11.674Z,97.57
2019-01-04T08:23:18.755Z,97.47
2019-01-04T08:27:25.883Z,97.24
2019-01-04T08:31:32.865Z,97.15
2019-01-04T08:35:39.932Z,96.95
2019-01-04T08:39:47.784Z,97.01
2019-01-04T08:43:56.733Z,97.04
2019-01-04T08:48:05.747Z,97.00
2019-01-04T08:52:12.667Z,96.78
2019-01-04T08:56:19.709Z,96.89
2019-01-04T09:00:26.931Z,96.63
2019-01-04T09:04:35.747Z,96.23
2019-01-04T09:08:42.676Z,96.08
2019-01-04T09:12:49.630Z,95.21
2019-01-04T09:16:58.023Z,94.29
2019-01-04T09:21:04.940Z,93.31
2019-01-04T09:25:14.708Z,92.37
2019-01-04T09:29:21.692Z,91.61
2019-01-04T09:33:30.129Z,90.13
2019-01-04T09:37:37.201Z,88.85
2019-01-04T09:42:02.264Z,89.15
2019-01-04T09:46:09.169Z,89.36
2019-01-04T09:50:16.738Z,87.82
2019-01-04T09:54:23.821Z,87.48
2019-01-04T09:58:31.218Z,86.82
2019-01-04T10:02:38.162Z,86.34
2019-01-04T10:06:45.191Z,84.87
2019-01-04T10:10:52.281Z,83.94
2019-01-04T10:14:59.616Z,82.53
2019-01-04T10:19:07.349Z,81.64
2019-01-04T10:23:14.310Z,79.72
2019-01-04T10:27:22.604Z,78.61
2019-01-04T10:31:29.595Z,78.69
2019-01-04T10:35:38.017Z,77.42
2019-01-04T10:39:44.820Z,76.69
2019-01-04T10:43:51.738Z,76.08
2019-01-04T10:47:58.736Z,73.09
2019-01-04T10:52:05.760Z,73.09
2019-01-04T10:56:12.683Z,71.80
2019-01-04T11:00:19.612Z,71.13
2019-01-04T11:04:26.490Z,71.26
2019-01-04T11:08:33.483Z,70.52
2019-01-04T11:12:40.507Z,70.24
2019-01-04T11:16:47.534Z,69.72
2019-01-04T11:20:55.266Z,69.36
2019-01-04T11:25:53.734Z,69.10
2019-01-04T11:30:33.937Z,68.99
2019-01-04T11:35:48.785Z,70.09
2019-01-04T11:40:55.826Z,70.29
2019-01-04T11:45:23.941Z,70.32
2019-01-04T11:50:21.702Z,69.59
2019-01-04T11:54:33.202Z,69.58
2019-01-04T11:58:40.455Z,69.80
2019-01-04T12:02:47.545Z,69.74
2019-01-04T12:06:54.794Z,70.07
2019-01-04T12:11:01.672Z,69.34
2019-01-04T12:15:09.070Z,69.69
2019-01-04T12:19:16.063Z,70.60
2019-01-04T12:23:23.091Z,70.61
2019-01-04T12:27:30.125Z,70.75
2019-01-04T12:31:37.140Z,70.99
2019-01-04T12:35:46.560Z,70.74
2019-01-04T12:39:53.457Z,71.45
2019-01-04T12:44:01.473Z,71.61
2019-01-04T12:48:10.126Z,71.79
2019-01-04T12:52:17.062Z,72.36
2019-01-04T12:56:25.588Z,72.98
2019-01-04T13:00:32.577Z,72.29
2019-01-04T13:04:39.606Z,72.27
2019-01-04T13:08:46.657Z,72.58
2019-01-04T13:12:53.586Z,72.97
2019-01-04T13:17:01.676Z,73.45
2019-01-04T13:21:09.086Z,73.67
2019-01-04T13:25:16.022Z,73.92
2019-01-04T13:29:25.216Z,74.95
2019-01-04T13:33:32.188Z,74.70
2019-01-04T13:37:39.070Z,74.86
2019-01-04T13:41:46.014Z,74.85
2019-01-04T13:45:55.593Z,74.84
2019-01-04T13:50:02.531Z,74.99
2019-01-04T13:54:09.368Z,75.29
2019-01-04T13:58:16.236Z,75.43
2019-01-04T14:02:23.078Z,76.10
2019-01-04T14:06:30.058Z,76.53
2019-01-04T14:10:37.127Z,77.23
2019-01-04T14:14:44.098Z,77.42
2019-01-04T14:18:52.341Z,77.40
2019-01-04T14:22:59.352Z,77.41
2019-01-04T14:27:07.671Z,77.63
2019-01-04T14:31:16.180Z,77.61
2019-01-04T14:35:23.211Z,77.95
2019-01-04T14:39:31.446Z,77.84
2019-01-04T14:43:39.371Z,77.89
2019-01-04T14:47:46.479Z,77.82
2019-01-04T14:51:53.377Z,77.94
2019-01-04T14:56:00.406Z,77.97
2019-01-04T15:00:10.843Z,78.21
2019-01-04T15:04:18.383Z,78.36
2019-01-04T15:08:25.564Z,78.16
2019-01-04T15:12:32.725Z,78.42
2019-01-04T15:16:39.658Z,78.77
2019-01-04T15:20:46.526Z,78.89
2019-01-04T15:24:56.956Z,79.35
2019-01-04T15:29:03.845Z,79.68
2019-01-04T15:33:10.871Z,80.84
2019-01-04T15:37:17.970Z,80.92
2019-01-04T15:41:24.865Z,80.70
2019-01-04T15:45:32.429Z,80.91
2019-01-04T15:49:40.287Z,80.72
2019-01-04T15:53:47.190Z,80.70
2019-01-04T15:57:54.064Z,80.44
2019-01-04T16:02:01.096Z,80.41
2019-01-04T16:06:12.590Z,79.98
2019-01-04T16:10:16.958Z,80.13
2019-01-04T16:14:23.919Z,79.87
2019-01-04T16:18:30.797Z,79.75
2019-01-04T16:22:38.780Z,79.82
2019-01-04T16:26:45.766Z,79.74
2019-01-04T16:30:53.103Z,80.81
2019-01-04T16:35:03.146Z,82.00
2019-01-04T16:39:15.122Z,82.55
2019-01-04T16:43:22.227Z,82.80
2019-01-04T16:47:29.771Z,83.01
2019-01-04T16:51:36.718Z,82.83
2019-01-04T16:55:45.456Z,82.97
2019-01-04T16:59:52.705Z,83.75
2019-01-04T17:03:59.661Z,84.18
2019-01-04T17:08:06.743Z,84.44
2019-01-04T17:12:13.808Z,84.29
2019-01-04T17:16:20.867Z,84.38
2019-01-04T17:20:28.424Z,84.27
2019-01-04T17:24:35.247Z,84.34
2019-01-04T17:28:42.119Z,84.37
2019-01-04T17:32:49.041Z,84.33
2019-01-04T17:36:55.973Z,84.61
2019-01-04T17:41:04.162Z,84.27
2019-01-04T17:45:11.202Z,84.37
2019-01-04T17:49:20.655Z,84.08
2019-01-04T17:53:27.732Z,84.19
2019-01-04T17:57:34.938Z,83.83
2019-01-04T18:01:41.948Z,83.41
2019-01-04T18:05:49.061Z,83.62
2019-01-04T18:09:56.174Z,83.85
2019-01-04T18:14:03.039Z,83.64
2019-01-04T18:18:10.149Z,83.60
2019-01-04T18:22:17.272Z,83.81
2019-01-04T18:26:26.676Z,83.12
2019-01-04T18:30:35.071Z,83.21
2019-01-04T18:34:43.321Z,83.12
2019-01-04T18:38:50.984Z,82.88
2019-01-04T18:42:59.834Z,82.85
2019-01-04T18:47:08.221Z,82.76
2019-01-04T18:51:15.346Z,82.86
2019-01-04T18:55:23.719Z,82.79
2019-01-04T18:59:30.958Z,82.97
2019-01-04T19:03:38.057Z,85.93
2019-01-04T19:07:45.477Z,84.35
2019-01-04T19:11:52.751Z,83.79
2019-01-04T19:16:00.181Z,84.59
2019-01-04T19:20:08.011Z,83.98
2019-01-04T19:24:15.460Z,83.37
2019-01-04T19:28:22.756Z,83.91
2019-01-04T19:32:30.140Z,83.17
2019-01-04T19:36:38.287Z,82.87
2019-01-04T19:40:46.986Z,82.95
2019-01-04T19:44:55.372Z,82.97
2019-01-04T19:49:02.779Z,81.73
2019-01-04T19:53:12.971Z,81.87
2019-01-04T19:57:29.290Z,82.08
2019-01-04T20:01:36.802Z,82.09
2019-01-04T20:06:41.778Z,82.66
2019-01-04T20:12:26.476Z,82.47
2019-01-04T20:17:00.521Z,82.63
2019-01-04T20:21:38.968Z,82.83
2019-01-04T20:26:05.551Z,82.75
2019-01-04T20:30:31.497Z,83.25
2019-01-04T20:34:59.433Z,83.38
2019-01-04T20:39:22.743Z,83.50
2019-01-04T20:44:07.038Z,83.72
2019-01-04T20:48:37.198Z,83.77
2019-01-04T20:52:54.839Z,83.92
2019-01-04T20:57:19.901Z,83.79
2019-01-04T21:01:48.727Z,83.81
2019-01-04T21:06:17.863Z,83.72
2019-01-04T21:10:43.801Z,83.98
2019-01-04T21:15:12.949Z,83.80
2019-01-04T21:19:51.132Z,83.74
2019-01-04T21:24:18.759Z,83.79
2019-01-04T21:28:43.420Z,83.94
2019-01-04T21:33:24.607Z,83.62
2019-01-04T21:37:55.177Z,83.76
2019-01-04T21:42:24.190Z,83.33
2019-01-04T21:46:56.851Z,82.96
2019-01-04T21:51:20.600Z,83.20
2019-01-04T21:55:46.515Z,83.06
2019-01-04T22:00:21.216Z,83.03
2019-01-04T22:04:45.791Z,82.76
2019-01-04T22:09:23.478Z,82.72
2019-01-04T22:13:48.115Z,82.77
2019-01-04T22:18:30.270Z,82.78
2019-01-04T22:23:08.434Z,82.67
2019-01-04T22:27:43.402Z,82.75
2019-01-04T22:32:19.887Z,82.91
2019-01-04T22:36:44.296Z,83.09
2019-01-04T22:41:19.563Z,82.96
2019-01-04T22:45:52.564Z,82.83
2019-01-04T22:50:27.522Z,83.04
2019-01-04T22:54:55.510Z,83.27
2019-01-04T22:59:19.918Z,83.18
2019-01-04T23:03:44.983Z,83.56
2019-01-04T23:08:10.004Z,83.59
2019-01-04T23:12:38.030Z,83.87
2019-01-04T23:17:03.963Z,83.53
2019-01-04T23:22:15.405Z,83.59
2019-01-04T23:26:47.403Z,83.54
2019-01-04T23:31:13.353Z,83.65
2019-01-04T23:35:38.654Z,83.58
2019-01-04T23:40:03.383Z,83.62
2019-01-04T23:44:34.288Z,83.23
2019-01-04T23:49:12.277Z,83.53
2019-01-04T23:53:36.851Z,83.33
2019-01-04T23:58:21.755Z,83.45
